Time;durP1;ratioP1;P1;durP2;ratioP2;P2;SDS_P1;SDS_P2;PMS_P1;PMS_P2;Temp;Humidity;BMP_temperature;BMP_pressure;BME280_temperature;BME280_humidity;BME280_pressure;Samples;Min_cycle;Max_cycle;Signal;HPM_P1;HPM_P2
2022/10/04 00:02:13;;;;;;;3.58;1.90;;;;;;;22.16;46.28;100609.56;1721913;82;21342;-79
2022/10/04 00:04:47;;;;;;;4.78;1.87;;;;;;;22.15;46.27;100596.28;1764311;80;21070;-78
2022/10/04 00:07:21;;;;;;;3.67;1.80;;;;;;;22.15;46.25;100602.42;1759361;80;21485;-79
2022/10/04 00:09:52;;;;;;;3.40;1.50;;;;;;;22.14;46.26;100591.91;1739627;81;21121;-79
2022/10/04 00:12:39;;;;;;;4.40;2.10;;;;;;;22.14;46.25;100593.86;1759552;80;21109;-79
2022/10/04 00:15:17;;;;;;;2.77;1.75;;;;;;;22.14;46.22;100593.86;1759001;80;21515;-78
2022/10/04 00:17:43;;;;;;;4.35;1.85;;;;;;;22.14;46.17;100597.45;1758714;80;21085;-78
2022/10/04 00:20:52;;;;;;;3.12;1.82;;;;;;;22.14;46.17;100599.40;1793249;78;21017;-78
2022/10/04 00:23:38;;;;;;;3.17;1.77;;;;;;;22.14;46.15;100609.91;1819924;78;21328;-79
2022/10/04 00:26:28;;;;;;;3.80;1.80;;;;;;;22.14;46.13;100611.87;1737235;81;21104;-78
2022/10/04 00:28:55;;;;;;;3.27;2.00;;;;;;;22.15;46.08;100612.90;1743130;80;21578;-78
2022/10/04 00:31:26;;;;;;;3.05;1.70;;;;;;;22.14;46.04;100619.61;1747438;81;21479;-79
2022/10/04 00:33:58;;;;;;;3.60;1.75;;;;;;;22.14;46.03;100620.18;1736847;81;21563;-79
2022/10/04 00:36:44;;;;;;;2.22;1.50;;;;;;;22.13;46.01;100618.55;1744016;81;21105;-78
2022/10/04 00:39:15;;;;;;;3.55;1.90;;;;;;;22.14;45.99;100624.34;1736794;81;21077;-78
2022/10/04 00:42:02;;;;;;;2.70;1.70;;;;;;;22.14;45.99;100618.80;1766644;80;21546;-79
2022/10/04 00:44:49;;;;;;;4.60;1.70;;;;;;;22.13;45.95;100619.36;1736043;81;21623;-78
2022/10/04 00:47:30;;;;;;;2.52;1.65;;;;;;;22.12;45.94;100615.53;1745325;81;21536;-78
2022/10/04 00:50:04;;;;;;;2.45;2.00;;;;;;;22.11;45.90;100619.44;1736714;81;21057;-78
2022/10/04 00:52:33;;;;;;;2.35;1.57;;;;;;;22.11;45.85;100616.09;1766912;80;21132;-79
2022/10/04 00:55:06;;;;;;;2.75;1.57;;;;;;;22.11;45.85;100613.33;1736955;82;21297;-79
2022/10/04 00:57:40;;;;;;;3.47;1.87;;;;;;;22.11;45.84;100620.82;1767399;80;21371;-79
2022/10/04 01:00:14;;;;;;;3.55;1.55;;;;;;;22.11;45.85;100616.67;1736793;81;21673;-78
2022/10/04 01:02:49;;;;;;;2.60;1.40;;;;;;;22.11;45.83;100622.20;1767163;80;21583;-78
2022/10/04 01:05:20;;;;;;;2.67;1.50;;;;;;;22.11;45.84;100618.88;1737739;80;21434;-79
2022/10/04 01:07:57;;;;;;;3.77;1.80;;;;;;;22.11;45.83;100623.59;1766887;80;21084;-79
2022/10/04 01:10:33;;;;;;;2.50;1.70;;;;;;;22.11;45.81;100629.13;1742568;80;21025;-78
2022/10/04 01:13:25;;;;;;;2.65;1.62;;;;;;;22.10;45.79;100626.97;1753422;80;21064;-78
2022/10/04 01:16:13;;;;;;;3.10;1.55;;;;;;;22.10;45.78;100632.50;1753639;80;21063;-79
2022/10/04 01:18:39;;;;;;;3.20;1.50;;;;;;;22.10;45.75;100630.30;1753296;80;21702;-78
2022/10/04 01:21:26;;;;;;;3.02;1.50;;;;;;;22.10;45.74;100635.84;1738607;79;21080;-79
2022/10/04 01:23:59;;;;;;;1.95;1.27;;;;;;;22.10;45.74;100637.23;1771631;79;21041;-78
2022/10/04 01:26:31;;;;;;;4.12;1.50;;;;;;;22.10;45.71;100638.62;1771993;80;21535;-77
2022/10/04 01:29:07;;;;;;;2.50;1.50;;;;;;;22.09;45.69;100637.80;1771681;79;21053;-78
2022/10/04 01:31:46;;;;;;;2.83;1.57;;;;;;;22.09;45.70;100644.72;1772026;80;21087;-78
2022/10/04 01:34:21;;;;;;;2.40;1.40;;;;;;;22.08;45.69;100646.43;1769988;80;21389;-77
2022/10/04 01:36:48;;;;;;;3.98;1.85;;;;;;;22.09;45.66;100650.84;1771986;79;21029;-77
2022/10/04 01:39:15;;;;;;;2.87;1.52;;;;;;;22.09;45.62;100654.99;1771771;79;21045;-78
2022/10/04 01:42:05;;;;;;;2.02;1.37;;;;;;;22.08;45.58;100652.78;1739455;81;21069;-78
2022/10/04 01:44:50;;;;;;;2.23;1.63;;;;;;;22.10;45.56;100656.63;1764533;80;21768;-78
2022/10/04 01:47:22;;;;;;;2.25;1.45;;;;;;;22.10;45.54;100653.86;1784345;80;21096;-78
2022/10/04 01:49:48;;;;;;;2.25;1.47;;;;;;;22.10;45.49;100658.83;1783074;80;21122;-78
2022/10/04 01:52:23;;;;;;;2.33;1.52;;;;;;;22.10;45.48;100655.23;1753292;80;21053;-77
2022/10/04 01:55:18;;;;;;;1.62;1.20;;;;;;;22.11;45.43;100661.00;1784344;80;21051;-78
2022/10/04 01:57:49;;;;;;;2.05;1.42;;;;;;;22.10;45.43;100656.05;1782144;80;21052;-78
2022/10/04 02:00:15;;;;;;;2.15;1.20;;;;;;;22.10;45.41;100656.63;1784134;78;21150;-78
2022/10/04 02:03:04;;;;;;;2.98;1.50;;;;;;;22.11;45.40;100656.27;1784396;79;21040;-78
2022/10/04 02:05:36;;;;;;;3.75;1.65;;;;;;;22.10;45.36;100657.44;1820511;77;20953;-78
2022/10/04 02:08:08;;;;;;;2.22;1.30;;;;;;;22.10;45.35;100656.63;1829370;77;21576;-78
2022/10/04 02:10:36;;;;;;;3.08;1.37;;;;;;;22.11;45.34;100661.81;1828289;78;21037;-78
2022/10/04 02:13:04;;;;;;;2.08;1.02;;;;;;;22.10;45.28;100659.39;1829479;77;21015;-78
2022/10/04 02:15:30;;;;;;;2.87;1.47;;;;;;;22.11;45.27;100658.23;1808943;78;21602;-78
2022/10/04 02:17:56;;;;;;;2.75;1.35;;;;;;;22.09;45.27;100658.58;1829070;78;21049;-78
2022/10/04 02:20:25;;;;;;;2.95;1.50;;;;;;;22.10;45.27;100664.37;1796469;79;22197;-78
2022/10/04 02:22:55;;;;;;;2.25;1.65;;;;;;;22.09;45.24;100662.73;1746993;82;21120;-78
2022/10/04 02:25:21;;;;;;;6.97;1.50;;;;;;;22.09;45.25;100664.12;1747072;82;24548;-78
2022/10/04 02:27:52;;;;;;;3.80;1.25;;;;;;;22.09;45.24;100664.69;1811300;79;20997;-78
2022/10/04 02:30:18;;;;;;;3.83;1.67;;;;;;;22.08;45.24;100662.48;1811707;79;21021;-78
2022/10/04 02:32:57;;;;;;;2.52;1.32;;;;;;;22.08;45.24;100663.87;1722967;82;21112;-78
2022/10/04 02:35:35;;;;;;;2.62;1.27;;;;;;;22.09;45.22;100668.84;1747189;82;21310;-78
2022/10/04 02:38:21;;;;;;;2.37;1.27;;;;;;;22.08;45.19;100672.75;1745152;82;21813;-78
2022/10/04 02:40:58;;;;;;;2.55;1.37;;;;;;;22.07;45.16;100678.86;1747355;82;21579;-78
2022/10/04 02:43:38;;;;;;;2.10;1.30;;;;;;;22.07;45.15;100675.27;1747037;82;21112;-79
2022/10/04 02:46:27;;;;;;;1.65;1.22;;;;;;;22.07;45.17;100674.70;1746550;82;21076;-78
2022/10/04 02:48:59;;;;;;;3.10;1.20;;;;;;;22.08;45.16;100683.83;1745955;82;22351;-78
2022/10/04 02:51:53;;;;;;;1.90;1.30;;;;;;;22.07;45.17;100678.86;1746792;82;21117;-78
2022/10/04 02:54:47;;;;;;;2.35;1.25;;;;;;;22.06;45.16;100682.80;1741296;81;21045;-78
2022/10/04 02:57:16;;;;;;;2.40;1.30;;;;;;;22.06;45.12;100686.14;1719156;81;21063;-78
2022/10/04 02:59:43;;;;;;;2.60;1.30;;;;;;;22.05;45.13;100689.48;1716861;82;21053;-78
2022/10/04 03:02:25;;;;;;;2.70;1.20;;;;;;;22.04;45.11;100690.61;1780491;80;21610;-78
2022/10/04 03:04:53;;;;;;;2.62;1.00;;;;;;;22.04;45.11;100688.41;1780234;79;22394;-78
2022/10/04 03:07:19;;;;;;;2.50;1.40;;;;;;;22.05;45.10;100698.36;1780303;79;21016;-78
2022/10/04 03:09:45;;;;;;;2.02;1.30;;;;;;;22.05;45.06;100694.20;1780130;79;21035;-78
2022/10/04 03:12:12;;;;;;;3.37;1.20;;;;;;;22.04;45.05;100696.72;1780132;80;21497;-78
2022/10/04 03:14:38;;;;;;;2.60;1.42;;;;;;;22.04;45.03;100696.16;1780318;80;21063;-78
2022/10/04 03:17:11;;;;;;;1.77;1.32;;;;;;;22.05;45.00;100701.94;1780091;79;21689;-78
2022/10/04 03:19:37;;;;;;;3.42;1.47;;;;;;;22.06;44.96;100706.91;1762583;78;21051;-78
2022/10/04 03:22:07;;;;;;;3.85;1.77;;;;;;;22.06;44.95;100704.96;1819413;78;21599;-78
2022/10/04 03:24:39;;;;;;;1.62;1.40;;;;;;;22.06;44.93;100707.73;1747630;82;21013;-79
2022/10/04 03:27:06;;;;;;;1.95;1.30;;;;;;;22.06;44.91;100709.69;1777590;80;21617;-78
2022/10/04 03:29:33;;;;;;;3.72;1.50;;;;;;;22.06;44.90;100722.97;1777822;80;21144;-78
2022/10/04 03:32:02;;;;;;;2.47;1.10;;;;;;;22.06;44.89;100729.90;1743895;81;21027;-78
2022/10/04 03:34:35;;;;;;;1.90;1.30;;;;;;;22.06;44.86;100729.08;1784490;80;22116;-78
2022/10/04 03:37:01;;;;;;;2.70;1.30;;;;;;;22.06;44.82;100727.70;1751710;80;21162;-78
2022/10/04 03:39:35;;;;;;;2.45;1.40;;;;;;;22.06;44.81;100720.20;1751218;80;21777;-78
2022/10/04 03:42:20;;;;;;;3.60;1.40;;;;;;;22.06;44.80;100724.92;1783935;80;21206;-78
2022/10/04 03:44:48;;;;;;;2.42;1.30;;;;;;;22.05;44.77;100729.65;1750925;80;21665;-79
2022/10/04 03:47:31;;;;;;;3.58;1.32;;;;;;;22.06;44.75;100740.16;1784996;80;21083;-78
2022/10/04 03:50:01;;;;;;;2.25;1.37;;;;;;;22.05;44.75;100743.50;1782187;80;21006;-79
2022/10/04 03:52:31;;;;;;;2.87;1.45;;;;;;;22.05;44.72;100747.66;1784071;80;21005;-78
2022/10/04 03:55:01;;;;;;;4.35;1.60;;;;;;;22.05;44.70;100751.00;1784584;80;21127;-78
2022/10/04 03:57:28;;;;;;;2.65;1.30;;;;;;;22.04;44.65;100753.52;1784302;80;20986;-78
2022/10/04 03:59:55;;;;;;;2.50;1.47;;;;;;;22.02;44.54;100753.86;1784048;80;21530;-78
2022/10/04 04:02:53;;;;;;;2.05;1.20;;;;;;;21.99;44.32;100753.11;1751092;80;21107;-78
2022/10/04 04:05:49;;;;;;;2.62;1.35;;;;;;;21.98;44.11;100759.00;1778841;80;21057;-78
2022/10/04 04:08:20;;;;;;;3.00;1.72;;;;;;;21.93;43.82;100755.02;1773537;80;21685;-78
2022/10/04 04:10:50;;;;;;;2.10;1.12;;;;;;;21.90;43.55;100761.97;1772385;80;21533;-78
2022/10/04 04:13:57;;;;;;;3.17;1.40;;;;;;;21.87;43.29;100763.45;1772809;80;21028;-78
2022/10/04 04:16:27;;;;;;;5.42;1.65;;;;;;;21.87;42.97;100766.78;1773445;80;21029;-78
2022/10/04 04:18:54;;;;;;;2.93;1.40;;;;;;;21.79;42.72;100771.20;1773830;80;21103;-77
2022/10/04 04:21:23;;;;;;;4.30;1.67;;;;;;;21.71;42.46;100767.86;1773013;80;21499;-77
2022/10/04 04:23:57;;;;;;;6.17;1.90;;;;;;;21.61;42.19;100773.70;1773163;80;21582;-77
2022/10/04 04:26:41;;;;;;;4.55;2.05;;;;;;;21.51;41.97;100762.98;1764515;80;21011;-77
2022/10/04 04:29:31;;;;;;;2.83;1.47;;;;;;;21.43;41.84;100773.44;1695640;82;21006;-78
2022/10/04 04:32:04;;;;;;;4.43;1.80;;;;;;;21.32;41.69;100776.28;1771457;80;21008;-77
2022/10/04 04:34:33;;;;;;;7.53;1.85;;;;;;;21.22;41.56;100777.40;1743965;80;21103;-76
2022/10/04 04:37:02;;;;;;;4.00;1.72;;;;;;;21.14;41.45;100781.53;1759164;80;21016;-77
2022/10/04 04:39:33;;;;;;;3.60;2.02;;;;;;;21.08;41.35;100781.42;1758333;80;21020;-79
2022/10/04 04:42:01;;;;;;;8.70;1.70;;;;;;;21.02;41.26;100790.98;1763385;80;21021;-75
2022/10/04 04:44:30;;;;;;;5.20;2.00;;;;;;;20.95;41.17;100785.38;1758489;79;21039;-79
2022/10/04 04:46:59;;;;;;;8.13;1.90;;;;;;;20.90;41.16;100799.34;1754482;80;21179;-81
2022/10/04 04:49:28;;;;;;;7.78;2.08;;;;;;;20.85;41.07;100804.19;1753725;80;21040;-81
2022/10/04 04:51:56;;;;;;;9.73;1.77;;;;;;;20.76;41.00;100800.00;1756626;80;21064;-79
2022/10/04 04:54:24;;;;;;;5.37;1.65;;;;;;;20.73;41.13;100802.59;1764454;80;21125;-82
2022/10/04 04:56:51;;;;;;;7.47;2.00;;;;;;;20.66;41.02;100800.86;1804390;78;21570;-74
2022/10/04 04:59:24;;;;;;;7.60;2.00;;;;;;;20.64;41.07;100805.31;1808786;78;21166;-75
2022/10/04 05:01:52;;;;;;;5.90;2.05;;;;;;;20.60;41.13;100814.00;1775343;79;21008;-79
2022/10/04 05:04:23;;;;;;;8.85;2.30;;;;;;;20.57;41.03;100816.02;1808911;78;21283;-75
2022/10/04 05:07:04;;;;;;;11.18;2.37;;;;;;;20.56;41.09;100826.00;1813204;77;21767;-75
2022/10/04 05:09:35;;;;;;;;;;;;;;;20.55;41.00;100822.42;1817146;77;21699;-79
2022/10/04 05:12:19;;;;;;;5.55;2.05;;;;;;;20.46;40.79;100827.08;1809060;77;21348;-73
2022/10/04 05:14:48;;;;;;;8.55;2.80;;;;;;;20.39;41.14;100834.44;1809887;78;21056;-75
2022/10/04 05:17:22;;;;;;;7.97;2.58;;;;;;;20.31;41.13;100833.83;1774735;79;21046;-73
2022/10/04 05:19:48;;;;;;;12.18;2.65;;;;;;;20.30;41.15;100847.95;1806917;78;21049;-75
2022/10/04 05:22:18;;;;;;;8.45;2.37;;;;;;;20.30;41.16;100853.47;1810004;78;21677;-75
2022/10/04 05:24:47;;;;;;;9.93;2.42;;;;;;;20.27;40.98;100849.93;1761028;80;22349;-75
2022/10/04 05:27:17;;;;;;;10.45;3.12;;;;;;;20.22;41.04;100863.30;1765732;80;21025;-75
2022/10/04 05:30:06;;;;;;;8.33;2.40;;;;;;;20.23;41.08;100866.89;1755694;80;21082;-76
2022/10/04 05:33:02;;;;;;;13.03;2.35;;;;;;;20.25;41.04;100870.13;1761828;79;21697;-75
2022/10/04 05:35:29;;;;;;;6.30;3.00;;;;;;;20.27;41.02;100877.56;1770569;80;22476;-75
2022/10/04 05:38:43;;;;;;;9.05;3.98;;;;;;;20.29;41.03;100876.66;1810081;77;21497;-75
2022/10/04 05:41:32;;;;;;;11.93;3.60;;;;;;;20.37;41.10;100886.43;1810722;78;21053;-82
2022/10/04 05:44:00;;;;;;;8.23;3.62;;;;;;;20.47;41.05;100896.42;1798594;78;21677;-79
2022/10/04 05:46:36;;;;;;;9.33;3.60;;;;;;;20.52;41.07;100894.92;1749450;79;21047;-76
2022/10/04 05:49:13;;;;;;;11.57;3.52;;;;;;;20.58;41.14;100904.70;1809291;78;22322;-74
2022/10/04 05:52:00;;;;;;;9.20;2.98;;;;;;;20.58;41.17;100907.47;1813819;77;21194;-73
2022/10/04 05:54:32;;;;;;;12.07;3.37;;;;;;;20.56;41.29;100912.51;1804051;77;22009;-74
2022/10/04 05:57:07;;;;;;;17.17;3.20;;;;;;;20.57;41.52;100910.56;1803156;77;21088;-75
2022/10/04 05:59:42;;;;;;;18.00;3.45;;;;;;;20.55;41.63;100912.25;1802816;78;21057;-75
2022/10/04 06:02:35;;;;;;;17.60;2.95;;;;;;;20.58;41.73;100914.97;1803789;78;21068;-74
2022/10/04 06:05:34;;;;;;;13.58;2.50;;;;;;;20.56;41.85;100920.80;1802098;78;21303;-78
2022/10/04 06:08:15;;;;;;;15.10;3.42;;;;;;;20.58;41.82;100927.41;1809468;78;22113;-76
2022/10/04 06:11:11;;;;;;;17.15;3.00;;;;;;;20.57;41.99;100928.53;1811444;78;21033;-77
2022/10/04 06:14:16;;;;;;;13.60;2.92;;;;;;;20.56;42.01;100929.66;1806532;78;21006;-81
2022/10/04 06:17:05;;;;;;;10.30;2.50;;;;;;;20.57;42.07;100938.20;1817560;77;21073;-82
2022/10/04 06:20:04;;;;;;;6.15;2.47;;;;;;;20.57;42.12;100948.70;1765397;80;21566;-80
2022/10/04 06:22:32;;;;;;;10.63;2.80;;;;;;;20.57;42.14;100945.94;1806931;78;21146;-80
2022/10/04 06:25:08;;;;;;;13.65;3.37;;;;;;;20.60;42.15;100954.16;1801932;78;21817;-85
2022/10/04 06:27:45;;;;;;;9.10;2.83;;;;;;;20.61;42.22;100958.00;1813938;78;21100;-81
2022/10/04 06:30:14;;;;;;;9.08;3.20;;;;;;;20.62;42.18;100955.49;1804324;78;21124;-80
2022/10/04 06:33:28;;;;;;;8.80;2.55;;;;;;;20.63;42.15;100954.34;1804795;78;21161;-81
2022/10/04 06:36:29;;;;;;;12.37;2.80;;;;;;;20.67;42.12;100962.25;1810648;78;21006;-77
2022/10/04 06:39:26;;;;;;;10.35;3.05;;;;;;;20.68;42.08;100969.42;1804659;78;27398;-75
2022/10/04 06:42:19;;;;;;;9.00;2.50;;;;;;;20.69;42.06;100975.77;1798219;78;21073;-75
2022/10/04 06:45:11;;;;;;;5.03;2.75;;;;;;;20.71;41.96;100982.61;1810839;78;21627;-75
2022/10/04 06:48:18;;;;;;;6.12;3.10;;;;;;;20.71;41.92;100981.82;1800928;78;21131;-79
2022/10/04 06:51:06;;;;;;;10.93;3.17;;;;;;;20.71;42.16;100981.23;1805146;78;21952;-78
2022/10/04 06:53:50;;;;;;;13.70;3.25;;;;;;;20.72;42.13;100984.81;1805173;78;21096;-80
2022/10/04 06:56:22;;;;;;;12.13;3.20;;;;;;;20.69;42.19;100983.50;1804037;78;21077;-74
2022/10/04 06:59:28;;;;;;;14.70;3.90;;;;;;;20.60;42.15;100994.23;1792903;78;21032;-77
2022/10/04 07:02:03;;;;;;;25.97;5.05;;;;;;;20.47;42.17;100995.92;1806473;78;21161;-75
2022/10/04 07:05:03;;;;;;;11.88;5.25;;;;;;;20.36;42.53;101002.26;1802040;78;21550;-81
2022/10/04 07:07:36;;;;;;;;;;;;;;;20.37;42.63;101002.48;1765118;78;21634;-82
2022/10/04 07:10:23;;;;;;;14.00;5.72;;;;;;;20.41;42.85;101006.27;1767951;80;20194;-82
2022/10/04 07:13:09;;;;;;;16.82;6.83;;;;;;;20.46;42.89;101008.91;1776060;78;21638;-81
2022/10/04 07:16:05;;;;;;;14.20;6.80;;;;;;;20.53;42.89;101007.13;1769942;79;21620;-81
2022/10/04 07:18:55;;;;;;;16.95;6.45;;;;;;;20.59;42.87;101015.53;1772239;78;21093;-82
2022/10/04 07:21:23;;;;;;;14.03;5.40;;;;;;;20.64;42.79;101017.36;1763410;78;21666;-84
2022/10/04 07:24:00;;;;;;;11.38;5.17;;;;;;;20.65;42.76;101017.06;1766350;78;21131;-83
2022/10/04 07:26:35;;;;;;;9.88;4.00;;;;;;;20.65;42.70;101019.82;1751960;80;21926;-81
2022/10/04 07:29:21;;;;;;;9.45;3.72;;;;;;;20.65;42.63;101025.91;1768293;78;21179;-84
2022/10/04 07:32:16;;;;;;;12.15;3.45;;;;;;;20.65;42.63;101026.73;1762595;80;21069;-82
2022/10/04 07:34:47;;;;;;;10.32;3.30;;;;;;;20.65;42.56;101027.30;1767525;78;21092;-83
2022/10/04 07:37:14;;;;;;;7.12;3.47;;;;;;;20.66;42.50;101027.55;1774728;80;22195;-83
2022/10/04 07:40:26;;;;;;;6.37;2.50;;;;;;;20.69;42.42;101036.59;1773015;78;21033;-85
2022/10/04 07:43:00;;;;;;;6.25;2.30;;;;;;;20.69;42.26;101037.42;1775198;78;21159;-75
2022/10/04 07:45:32;;;;;;;6.10;2.20;;;;;;;20.67;42.07;101033.31;1760943;78;21049;-79
2022/10/04 07:48:21;;;;;;;9.58;2.47;;;;;;;20.65;41.91;101036.41;1773043;80;21432;-77
2022/10/04 07:51:11;;;;;;;15.80;2.10;;;;;;;20.65;42.04;101039.73;1776213;79;20934;-75
2022/10/04 07:54:05;;;;;;;12.70;2.40;;;;;;;20.64;42.15;101033.95;1758449;80;22343;-78
2022/10/04 07:56:49;;;;;;;16.48;2.45;;;;;;;20.58;42.04;101041.53;1770130;78;21511;-75
2022/10/04 07:59:57;;;;;;;25.45;3.30;;;;;;;20.51;42.10;101032.86;1778714;78;21515;-75
2022/10/04 08:02:44;;;;;;;27.60;2.22;;;;;;;20.45;42.20;101040.44;1775934;78;21132;-80
2022/10/04 08:05:44;;;;;;;14.83;2.30;;;;;;;20.41;42.14;101038.64;1758350;78;21017;-73
2022/10/04 08:08:36;;;;;;;9.98;1.90;;;;;;;20.39;42.10;101043.64;1766077;78;21128;-82
2022/10/04 08:11:30;;;;;;;13.13;2.27;;;;;;;20.38;41.87;101045.58;1770947;78;21051;-83
2022/10/04 08:14:35;;;;;;;12.98;1.90;;;;;;;20.37;41.63;101045.88;1779476;79;21036;-84
2022/10/04 08:17:34;;;;;;;16.57;2.90;;;;;;;20.37;41.71;101050.84;1772352;78;21069;-78
2022/10/04 08:20:11;;;;;;;10.28;2.33;;;;;;;20.43;41.87;101044.66;1774484;80;21069;-83
2022/10/04 08:23:17;;;;;;;9.30;1.55;;;;;;;20.51;41.99;101045.30;1768479;79;21061;-80
2022/10/04 08:25:52;;;;;;;5.85;1.40;;;;;;;20.55;41.73;101050.45;1765682;80;21091;-80
2022/10/04 08:32:45;;;;;;;5.22;1.42;;;;;;;20.57;41.41;101050.98;1768073;79;21557;-79
2022/10/04 08:35:38;;;;;;;9.20;1.50;;;;;;;20.58;41.15;101055.94;1769941;78;21543;-83
2022/10/04 08:38:34;;;;;;;1.87;1.10;;;;;;;20.61;41.16;101046.45;1771454;79;21199;-80
2022/10/04 08:41:32;;;;;;;11.63;1.52;;;;;;;20.61;41.07;101049.78;1721870;82;22052;-76
2022/10/04 08:44:28;;;;;;;17.75;2.25;;;;;;;20.60;41.08;101051.73;1760258;78;21095;-81
2022/10/04 08:47:33;;;;;;;21.25;3.50;;;;;;;20.63;41.32;101053.86;1753406;78;21053;-78
2022/10/04 08:50:31;;;;;;;23.70;3.02;;;;;;;20.67;41.71;101058.19;1769812;79;21100;-76
2022/10/04 08:53:35;;;;;;;19.95;2.17;;;;;;;20.70;41.92;101054.83;1737899;80;21057;-77
2022/10/04 08:56:40;;;;;;;17.85;2.00;;;;;;;20.76;41.90;101060.47;1772396;78;21146;-78
2022/10/04 08:59:48;;;;;;;22.82;3.10;;;;;;;20.77;41.86;101060.17;1731851;78;40602;-75
2022/10/04 09:02:48;;;;;;;18.15;1.70;;;;;;;20.87;40.49;101059.12;1767868;78;21061;-77
2022/10/04 09:05:38;;;;;;;13.72;1.90;;;;;;;20.80;40.98;101067.02;1764962;80;21116;-76
2022/10/04 09:08:43;;;;;;;5.95;1.55;;;;;;;20.82;41.20;101059.23;1795746;78;21131;-77
2022/10/04 09:11:37;;;;;;;10.48;1.60;;;;;;;20.80;41.16;101065.07;1804126;78;22016;-77
2022/10/04 09:14:33;;;;;;;12.45;1.82;;;;;;;20.79;41.29;101057.89;1806377;78;21504;-78
2022/10/04 09:17:45;;;;;;;3.62;0.65;;;;;;;20.81;41.16;101066.71;1804787;78;21521;-76
2022/10/04 09:20:49;;;;;;;1.90;1.07;;;;;;;20.84;41.17;101069.41;1801261;78;22313;-78
2022/10/04 09:23:38;;;;;;;3.10;1.00;;;;;;;20.86;40.95;101069.36;1761827;80;21090;-78
2022/10/04 09:26:22;;;;;;;3.37;0.70;;;;;;;20.86;40.70;101069.36;1794622;77;21109;-78
2022/10/04 09:29:32;;;;;;;2.05;0.70;;;;;;;20.87;40.74;101068.23;1812992;78;21060;-77
2022/10/04 09:32:25;;;;;;;2.40;0.62;;;;;;;20.91;40.55;101069.25;1800806;78;21092;-76
2022/10/04 09:35:30;;;;;;;1.95;0.60;;;;;;;20.92;40.25;101076.39;1800816;78;21111;-76
2022/10/04 09:38:09;;;;;;;2.35;0.60;;;;;;;20.92;40.05;101075.57;1714664;81;21824;-79
2022/10/04 09:40:53;;;;;;;2.60;0.62;;;;;;;20.92;39.98;101081.10;1700257;82;22029;-77
2022/10/04 09:43:56;;;;;;;3.85;0.70;;;;;;;20.92;39.87;101075.01;1749190;80;20996;-78
2022/10/04 09:47:05;;;;;;;1.62;0.88;;;;;;;20.90;39.67;101075.91;1761218;80;21104;-76
2022/10/04 09:49:40;;;;;;;1.70;0.70;;;;;;;20.91;39.62;101076.16;1773275;79;21081;-78
2022/10/04 09:52:47;;;;;;;4.62;0.50;;;;;;;20.89;39.48;101075.64;1769866;80;20890;-78
2022/10/04 09:55:57;;;;;;;6.80;0.95;;;;;;;20.91;39.38;101072.58;1801024;78;21120;-78
2022/10/04 09:59:06;;;;;;;14.98;1.37;;;;;;;20.92;39.58;101080.54;1816780;78;20994;-76
2022/10/04 10:01:46;;;;;;;14.10;1.30;;;;;;;20.99;39.83;101082.89;1810946;78;21053;-76
2022/10/04 10:04:33;;;;;;;14.55;1.62;;;;;;;21.03;39.86;101078.92;1813236;77;21039;-76
2022/10/04 10:07:23;;;;;;;18.27;1.98;;;;;;;21.06;40.07;101081.05;1813816;78;21116;-76
2022/10/04 10:14:02;;;;;;;10.13;1.17;;;;;;;21.06;40.22;101077.72;1808629;78;21593;-75
2022/10/04 10:16:55;;;;;;;16.97;1.80;;;;;;;21.07;40.25;101083.52;1806209;78;21575;-74
2022/10/04 10:19:58;;;;;;;10.30;1.62;;;;;;;21.07;40.22;101082.69;1766313;80;22301;-77
2022/10/04 10:23:05;;;;;;;8.95;1.77;;;;;;;21.07;40.24;101077.98;1817590;76;21269;-78
2022/10/04 10:25:49;;;;;;;3.75;1.15;;;;;;;21.06;40.15;101081.88;1787740;76;21132;-78
2022/10/04 10:28:27;;;;;;;2.62;1.00;;;;;;;21.05;40.13;101082.20;1823165;76;21056;-78
2022/10/04 10:31:18;;;;;;;6.85;1.70;;;;;;;21.04;40.09;101086.92;1814139;78;21009;-78
2022/10/04 10:34:16;;;;;;;3.27;1.30;;;;;;;21.04;40.08;101086.92;1817659;76;21139;-77
2022/10/04 10:37:00;;;;;;;7.67;1.25;;;;;;;21.03;40.00;101096.34;1810131;77;21022;-77
2022/10/04 10:40:07;;;;;;;1.62;0.90;;;;;;;21.03;39.95;101096.91;1811452;78;21103;-79
2022/10/04 10:43:05;;;;;;;4.03;1.00;;;;;;;21.02;39.93;101087.78;1761307;78;22220;-79
2022/10/04 10:46:09;;;;;;;3.62;1.30;;;;;;;21.06;40.17;101083.81;1808974;78;21132;-79
2022/10/04 10:48:58;;;;;;;4.53;1.10;;;;;;;21.09;40.18;101090.13;1704963;82;21110;-79
2022/10/04 10:52:04;;;;;;;16.97;1.42;;;;;;;21.11;40.11;101092.82;1799102;77;21512;-79
2022/10/04 10:55:07;;;;;;;22.55;2.30;;;;;;;21.13;40.25;101094.72;1807893;78;21482;-80
2022/10/04 10:58:04;;;;;;;14.93;2.00;;;;;;;21.13;40.42;101093.34;1821858;78;21041;-80
2022/10/04 11:01:04;;;;;;;15.75;1.80;;;;;;;21.15;40.70;101091.09;1823817;77;21169;-80
2022/10/04 11:03:59;;;;;;;21.42;2.65;;;;;;;21.18;40.78;101093.22;1802513;77;22135;-80
2022/10/04 11:07:05;;;;;;;30.85;2.98;;;;;;;21.19;40.87;101090.71;1750982;78;20992;-79
2022/10/04 11:09:58;;;;;;;23.30;3.17;;;;;;;21.21;40.83;101094.56;1820600;77;21876;-79
2022/10/04 11:12:48;;;;;;;10.15;2.45;;;;;;;21.20;40.79;101083.23;1782164;78;20993;-80
2022/10/04 11:16:12;;;;;;;11.40;2.20;;;;;;;21.21;40.70;101087.64;1814115;77;21058;-78
2022/10/04 11:19:00;;;;;;;12.30;1.72;;;;;;;21.20;40.66;101088.20;1800614;78;21048;-79
2022/10/04 11:22:14;;;;;;;11.60;1.85;;;;;;;21.20;40.61;101078.52;1817172;78;21032;-79
2022/10/04 11:25:01;;;;;;;15.63;2.00;;;;;;;21.20;40.55;101079.08;1799216;78;21304;-79
2022/10/04 11:28:03;;;;;;;12.47;1.82;;;;;;;21.21;40.58;101088.46;1811130;77;21009;-79
2022/10/04 11:31:04;;;;;;;16.10;2.50;;;;;;;21.24;40.54;101088.38;1800049;78;21023;-79
2022/10/04 11:33:35;;;;;;;14.30;2.42;;;;;;;21.25;40.50;101078.96;1658415;86;21117;-77
2022/10/04 11:36:31;;;;;;;28.95;3.45;;;;;;;21.25;40.45;101086.70;1656181;86;21093;-83
2022/10/04 11:39:39;;;;;;;17.55;2.45;;;;;;;21.24;40.32;101087.00;1677352;84;21575;-81
2022/10/04 11:42:27;;;;;;;13.62;2.10;;;;;;;21.24;40.43;101081.47;1646068;85;21097;-82
2022/10/04 11:45:50;;;;;;;9.75;2.30;;;;;;;21.25;40.43;101081.16;1657755;86;21388;-81
2022/10/04 11:48:52;;;;;;;9.10;1.80;;;;;;;21.27;40.44;101083.59;1655192;86;21619;-82
2022/10/04 11:51:33;;;;;;;15.15;1.80;;;;;;;21.27;40.42;101080.27;1647905;86;21170;-84
2022/10/04 11:54:46;;;;;;;14.33;2.55;;;;;;;21.27;40.36;101077.50;1659725;86;21273;-81
2022/10/04 11:57:42;;;;;;;15.23;1.85;;;;;;;21.28;40.63;101085.23;1658143;86;21089;-82
2022/10/04 12:00:22;;;;;;;15.85;2.80;;;;;;;21.33;40.79;101081.78;1687874;82;21355;-83
2022/10/04 12:03:36;;;;;;;19.70;2.20;;;;;;;21.36;40.86;101085.30;1668980;85;21078;-83
2022/10/04 12:06:32;;;;;;;23.95;2.00;;;;;;;21.39;40.87;101081.89;1657160;84;21622;-82
2022/10/04 12:09:22;;;;;;;16.07;1.57;;;;;;;21.38;40.81;101087.20;1674076;83;21073;-85
2022/10/04 12:15:21;;;;;;;12.63;1.47;;;;;;;21.33;40.09;101083.73;1675412;83;21064;-83
2022/10/04 12:18:38;;;;;;;8.03;1.98;;;;;;;21.31;40.29;101080.45;1700411;82;21142;-83
2022/10/04 12:21:19;;;;;;;5.87;1.17;;;;;;;21.29;40.22;101078.58;1709678;82;21930;-82
2022/10/04 12:24:16;;;;;;;8.28;1.82;;;;;;;21.29;40.20;101081.34;1701587;83;21163;-83
2022/10/04 12:27:38;;;;;;;6.55;1.47;;;;;;;21.28;40.11;101079.70;1698254;84;21718;-85
2022/10/04 12:30:25;;;;;;;9.93;2.30;;;;;;;21.28;40.20;101073.61;1677282;85;21086;-83
2022/10/04 12:33:11;;;;;;;8.50;1.45;;;;;;;21.30;40.22;101078.24;1692009;83;21930;-83
2022/10/04 12:36:04;;;;;;;5.00;1.70;;;;;;;21.28;40.16;101079.14;1680507;84;21119;-82
2022/10/04 12:38:48;;;;;;;6.85;1.70;;;;;;;21.29;40.20;101074.42;1680130;84;21198;-84
2022/10/04 12:41:48;;;;;;;5.80;1.72;;;;;;;21.29;40.05;101079.96;1701563;84;21722;-86
2022/10/04 12:44:49;;;;;;;9.38;2.70;;;;;;;21.30;39.87;101076.07;1686232;83;21807;-84
2022/10/04 12:47:38;;;;;;;8.23;1.92;;;;;;;21.29;39.95;101080.78;1685734;84;21123;-82
2022/10/04 12:50:25;;;;;;;9.83;1.80;;;;;;;21.29;39.88;101089.09;1680198;83;21108;-81
2022/10/04 12:53:18;;;;;;;24.25;2.90;;;;;;;21.27;39.82;101089.12;1682517;83;21107;-82
2022/10/04 12:56:08;;;;;;;10.98;1.65;;;;;;;21.28;40.20;101092.98;1669999;83;21076;-81